createdAt,value
2023-02-17T00:01:22.008Z,42.67
2023-02-17T00:03:24.815Z,45.00
2023-02-17T00:05:27.613Z,43.33
2023-02-17T00:07:30.750Z,46.67
2023-02-17T00:09:33.910Z,46.00
2023-02-17T00:11:37.074Z,46.00
2023-02-17T00:13:39.312Z,44.00
2023-02-17T00:15:41.080Z,45.33
2023-02-17T00:17:42.642Z,43.33
2023-02-17T00:19:44.416Z,46.33
2023-02-17T00:21:46.092Z,44.33
2023-02-17T00:23:49.078Z,45.00
2023-02-17T00:25:52.096Z,46.33
2023-02-17T00:27:53.787Z,43.67
2023-02-17T00:29:55.694Z,46.00
2023-02-17T00:31:57.554Z,42.33
2023-02-17T00:33:59.238Z,43.33
2023-02-17T00:36:04.291Z,46.00
2023-02-17T00:38:06.017Z,48.00
2023-02-17T00:40:08.613Z,41.33
2023-02-17T00:42:11.631Z,48.00
2023-02-17T00:44:16.651Z,41.33
2023-02-17T00:46:18.695Z,46.00
2023-02-17T00:48:20.264Z,45.33
2023-02-17T00:50:22.099Z,41.67
2023-02-17T00:52:23.821Z,43.00
2023-02-17T00:54:25.523Z,45.67
2023-02-17T00:56:27.129Z,44.67
2023-02-17T00:58:30.127Z,44.67
2023-02-17T01:00:31.946Z,44.67
2023-02-17T01:02:33.564Z,43.00
2023-02-17T01:04:35.153Z,43.33
2023-02-17T01:06:38.413Z,39.67
2023-02-17T01:08:40.099Z,46.00
2023-02-17T01:10:44.289Z,41.33
2023-02-17T01:12:45.834Z,45.00
2023-02-17T01:14:49.219Z,44.00
2023-02-17T01:16:50.756Z,46.67
2023-02-17T01:18:53.000Z,43.00
2023-02-17T01:20:54.842Z,43.33
2023-02-17T01:22:56.465Z,44.67
2023-02-17T01:24:58.207Z,46.00
2023-02-17T01:26:59.881Z,46.33
2023-02-17T01:29:03.018Z,44.33
2023-02-17T01:31:07.545Z,46.00
2023-02-17T01:33:09.602Z,42.33
2023-02-17T01:35:11.462Z,48.00
2023-02-17T01:37:13.182Z,47.00
2023-02-17T01:39:15.999Z,45.00
2023-02-17T01:41:20.671Z,45.33
2023-02-17T01:43:22.353Z,42.67
2023-02-17T01:45:36.541Z,49.00
2023-02-17T01:47:39.973Z,50.00
2023-02-17T01:49:41.975Z,41.67
2023-02-17T01:51:46.951Z,39.67
2023-02-17T01:53:55.365Z,47.33
2023-02-17T01:55:57.388Z,46.67
2023-02-17T01:58:01.589Z,41.67
2023-02-17T02:00:04.283Z,46.67
2023-02-17T02:02:07.206Z,46.67
2023-02-17T02:04:12.107Z,44.00
2023-02-17T02:06:16.894Z,44.00
2023-02-17T02:08:18.653Z,48.00
2023-02-17T02:10:20.477Z,45.67
2023-02-17T02:12:25.609Z,46.67
2023-02-17T02:14:28.237Z,39.00
2023-02-17T02:16:38.606Z,42.67
2023-02-17T02:18:51.881Z,40.00
2023-02-17T02:21:41.352Z,40.67
2023-02-17T02:23:56.407Z,45.00
2023-02-17T02:26:31.880Z,41.67
2023-02-17T02:28:53.683Z,41.33
2023-02-17T02:31:19.049Z,40.33
2023-02-17T02:33:32.159Z,43.00
2023-02-17T02:35:45.698Z,40.33
2023-02-17T02:37:53.752Z,35.67
2023-02-17T02:39:57.461Z,38.33
2023-02-17T02:42:03.901Z,40.00
2023-02-17T02:44:06.982Z,40.00
2023-02-17T02:46:09.249Z,39.00
2023-02-17T02:48:11.519Z,42.00
2023-02-17T02:50:19.629Z,42.00
2023-02-17T02:52:30.089Z,44.33
2023-02-17T02:54:49.358Z,43.00
2023-02-17T02:57:04.422Z,45.00
2023-02-17T02:59:19.063Z,43.67
2023-02-17T03:01:31.533Z,43.00
2023-02-17T03:03:42.213Z,42.00
2023-02-17T03:05:55.550Z,46.67
2023-02-17T03:08:02.257Z,51.33
2023-02-17T03:10:05.822Z,45.33
2023-02-17T03:12:07.883Z,45.00
2023-02-17T03:14:12.198Z,43.67
2023-02-17T03:16:13.855Z,40.67
2023-02-17T03:18:15.527Z,43.33
2023-02-17T03:20:17.737Z,41.00
2023-02-17T03:22:25.704Z,42.67
2023-02-17T03:24:27.742Z,43.33
2023-02-17T03:26:29.343Z,42.00
2023-02-17T03:28:31.149Z,38.33
2023-02-17T03:30:33.096Z,44.00
2023-02-17T03:32:35.194Z,43.33
2023-02-17T03:34:36.840Z,44.33
2023-02-17T03:36:38.663Z,42.00
2023-02-17T03:38:41.642Z,46.67
2023-02-17T03:40:43.382Z,43.33
2023-02-17T03:42:44.951Z,43.67
2023-02-17T03:44:46.543Z,45.00
2023-02-17T03:46:48.241Z,46.00
2023-02-17T03:48:49.939Z,43.67
2023-02-17T03:50:51.617Z,43.00
2023-02-17T03:52:53.290Z,44.67
2023-02-17T03:54:56.373Z,39.00
2023-02-17T03:56:58.039Z,44.67
2023-02-17T03:58:59.826Z,42.00
2023-02-17T04:01:01.914Z,44.00
2023-02-17T04:03:03.723Z,39.67
2023-02-17T04:05:05.910Z,42.33
2023-02-17T04:07:07.576Z,43.00
2023-02-17T04:09:09.172Z,43.33
2023-02-17T04:11:12.648Z,41.00
2023-02-17T04:13:14.207Z,44.00
2023-02-17T04:15:15.846Z,42.00
2023-02-17T04:17:17.440Z,46.00
2023-02-17T04:19:21.148Z,45.33
2023-02-17T04:21:22.956Z,41.67
2023-02-17T04:23:24.603Z,42.33
2023-02-17T04:25:26.316Z,41.67
2023-02-17T04:27:29.340Z,44.00
2023-02-17T04:29:31.891Z,32.67
2023-02-17T04:31:33.940Z,42.33
2023-02-17T04:33:35.697Z,44.33
2023-02-17T04:35:37.496Z,42.67
2023-02-17T04:37:39.131Z,43.00
2023-02-17T04:39:40.709Z,38.33
2023-02-17T04:41:42.338Z,35.33
2023-02-17T04:43:45.497Z,42.67
2023-02-17T04:45:47.179Z,40.00
2023-02-17T04:47:48.960Z,36.67
2023-02-17T04:49:50.627Z,38.33
2023-02-17T04:51:52.234Z,42.67
2023-02-17T04:53:53.921Z,43.67
2023-02-17T04:55:55.702Z,44.67
2023-02-17T04:57:57.520Z,37.33
2023-02-17T05:00:00.632Z,45.33
2023-02-17T05:02:02.336Z,39.33
2023-02-17T05:04:04.233Z,38.67
2023-02-17T05:06:06.880Z,41.00
2023-02-17T05:08:08.711Z,43.00
2023-02-17T05:10:11.741Z,42.00
2023-02-17T05:12:13.349Z,43.00
2023-02-17T05:14:15.365Z,38.67
2023-02-17T05:16:18.337Z,37.00
2023-02-17T05:18:20.144Z,39.67
2023-02-17T05:20:21.907Z,37.67
2023-02-17T05:22:23.618Z,35.00
2023-02-17T05:24:25.142Z,36.67
2023-02-17T05:26:27.227Z,42.33
2023-02-17T05:28:28.776Z,38.33
2023-02-17T05:30:30.420Z,41.67
2023-02-17T05:32:33.374Z,39.33
2023-02-17T05:34:36.387Z,42.00
2023-02-17T05:36:38.261Z,41.50
2023-02-17T05:38:40.517Z,42.33
2023-02-17T05:40:42.202Z,38.00
2023-02-17T05:42:43.979Z,35.00
2023-02-17T05:44:45.510Z,39.33
2023-02-17T05:46:47.925Z,38.33
2023-02-17T05:48:50.868Z,39.33
2023-02-17T05:50:52.623Z,36.67
2023-02-17T05:52:54.289Z,37.00
2023-02-17T05:54:56.224Z,38.00
2023-02-17T05:56:58.052Z,39.00
2023-02-17T05:58:59.664Z,37.67
2023-02-17T06:01:01.490Z,36.33
2023-02-17T06:03:03.096Z,38.33
2023-02-17T06:05:07.274Z,39.00
2023-02-17T06:07:09.193Z,40.67
2023-02-17T06:09:10.753Z,38.00
2023-02-17T06:11:12.332Z,38.33
2023-02-17T06:13:14.457Z,39.00
2023-02-17T06:15:16.504Z,35.67
2023-02-17T06:17:18.094Z,39.00
2023-02-17T06:19:20.239Z,37.67
2023-02-17T06:21:23.591Z,25.00
2023-02-17T06:23:25.845Z,33.33
2023-02-17T06:25:27.385Z,35.00
2023-02-17T06:27:29.320Z,35.00
2023-02-17T06:29:31.334Z,35.33
2023-02-17T06:31:33.724Z,34.33
2023-02-17T06:33:36.604Z,36.00
2023-02-17T06:35:38.256Z,36.00
2023-02-17T06:37:41.389Z,36.00
2023-02-17T06:39:43.091Z,37.00
2023-02-17T06:41:44.746Z,28.00
2023-02-17T06:43:46.425Z,35.00
2023-02-17T06:45:48.096Z,35.00
2023-02-17T06:47:49.673Z,34.33
2023-02-17T06:49:51.244Z,23.00
2023-02-17T06:51:52.922Z,34.33
2023-02-17T06:53:56.271Z,37.67
2023-02-17T06:55:57.898Z,36.00
2023-02-17T06:57:59.487Z,36.33
2023-02-17T07:00:01.340Z,32.33
2023-02-17T07:02:03.004Z,32.00
2023-02-17T07:04:05.129Z,31.33
2023-02-17T07:06:06.984Z,35.00
2023-02-17T07:08:08.972Z,31.00
2023-02-17T07:10:12.412Z,30.67
2023-02-17T07:12:14.243Z,34.00
2023-02-17T07:14:16.078Z,33.33
2023-02-17T07:16:17.743Z,32.00
2023-02-17T07:18:19.356Z,28.67
2023-02-17T07:20:21.277Z,34.33
2023-02-17T07:22:22.891Z,34.33
2023-02-17T07:24:24.672Z,35.33
2023-02-17T07:26:27.641Z,31.33
2023-02-17T07:28:29.595Z,28.00
2023-02-17T07:30:31.215Z,24.67
2023-02-17T07:32:33.198Z,29.33
2023-02-17T07:34:34.980Z,33.00
2023-02-17T07:36:36.563Z,32.33
2023-02-17T07:38:39.004Z,30.33
2023-02-17T07:40:40.617Z,31.00
2023-02-17T07:42:43.601Z,24.67
2023-02-17T07:44:45.152Z,30.00
2023-02-17T07:46:46.856Z,32.67
2023-02-17T07:48:48.481Z,31.67
2023-02-17T07:50:50.011Z,33.33
2023-02-17T07:52:51.586Z,33.67
2023-02-17T07:54:53.129Z,24.67
2023-02-17T07:56:54.870Z,27.00
2023-02-17T07:58:57.766Z,29.00
2023-02-17T08:01:04.756Z,31.67
2023-02-17T08:03:06.474Z,25.33
2023-02-17T08:05:08.130Z,20.00
2023-02-17T08:07:10.170Z,25.00
2023-02-17T08:09:12.520Z,27.00
2023-02-17T08:11:16.802Z,27.67
2023-02-17T08:13:18.380Z,25.00
2023-02-17T08:15:21.584Z,22.00
2023-02-17T08:17:23.467Z,24.33
2023-02-17T08:19:27.183Z,23.75
2023-02-17T08:21:31.719Z,31.33
2023-02-17T08:23:33.646Z,27.25
2023-02-17T08:25:35.823Z,22.75
2023-02-17T08:27:37.392Z,22.50
2023-02-17T08:29:38.993Z,20.75
2023-02-17T08:31:42.848Z,20.00
2023-02-17T08:33:44.472Z,20.25
2023-02-17T08:35:46.033Z,24.50
2023-02-17T08:37:47.860Z,19.25
2023-02-17T08:39:49.697Z,20.00
2023-02-17T08:41:51.300Z,23.00
2023-02-17T08:43:52.854Z,16.00
2023-02-17T08:45:54.498Z,18.00
2023-02-17T08:47:57.525Z,20.25
2023-02-17T08:49:59.363Z,23.50
2023-02-17T08:52:00.971Z,12.00
2023-02-17T08:54:04.627Z,20.75
2023-02-17T08:56:06.987Z,17.25
2023-02-17T08:58:08.855Z,20.00
2023-02-17T09:00:11.593Z,20.25
2023-02-17T09:02:13.200Z,17.75
2023-02-17T09:04:16.928Z,17.25
2023-02-17T09:06:19.573Z,20.00
2023-02-17T09:08:21.984Z,12.50
2023-02-17T09:10:23.661Z,19.50
2023-02-17T09:12:25.351Z,22.00
2023-02-17T09:14:27.196Z,17.25
2023-02-17T09:16:28.800Z,12.25
2023-02-17T09:18:30.375Z,13.75
2023-02-17T09:20:33.325Z,17.00
2023-02-17T09:22:35.120Z,16.50
2023-02-17T09:24:37.273Z,16.50
2023-02-17T09:26:38.838Z,11.25
2023-02-17T09:28:40.408Z,11.50
2023-02-17T09:30:42.976Z,12.00
2023-02-17T09:32:44.951Z,12.50
2023-02-17T09:34:46.850Z,13.25
2023-02-17T09:36:50.077Z,13.25
2023-02-17T09:38:52.777Z,4.75
2023-02-17T09:40:54.877Z,11.25
2023-02-17T09:42:56.530Z,12.75
2023-02-17T09:45:01.772Z,12.50
2023-02-17T09:47:08.165Z,11.25
2023-02-17T09:49:15.132Z,11.25
2023-02-17T09:51:26.977Z,12.00
2023-02-17T09:53:36.924Z,10.25
2023-02-17T09:55:41.396Z,10.75
2023-02-17T09:57:51.579Z,7.50
2023-02-17T09:59:58.630Z,9.50
2023-02-17T10:02:05.071Z,7.25
2023-02-17T10:04:12.511Z,10.25
2023-02-17T10:06:16.067Z,6.25
2023-02-17T10:08:22.684Z,11.50
2023-02-17T10:10:31.536Z,5.50
2023-02-17T10:12:38.578Z,5.75
2023-02-17T10:14:44.801Z,11.25
2023-02-17T10:16:51.433Z,8.75
2023-02-17T10:19:00.252Z,8.00
2023-02-17T10:21:05.051Z,15.50
2023-02-17T10:23:13.368Z,9.00
2023-02-17T10:25:17.901Z,10.00
2023-02-17T10:27:40.398Z,8.75
2023-02-17T10:29:55.910Z,8.75
2023-02-17T10:32:17.712Z,8.00
2023-02-17T10:34:33.172Z,9.75
2023-02-17T10:36:48.681Z,9.50
2023-02-17T10:38:52.670Z,9.50
2023-02-17T10:40:56.152Z,6.00
2023-02-17T10:43:02.888Z,8.25
2023-02-17T10:45:11.075Z,9.00
2023-02-17T10:47:12.737Z,11.00
2023-02-17T10:49:22.002Z,9.50
2023-02-17T10:51:26.644Z,8.75
2023-02-17T10:53:32.755Z,9.00
2023-02-17T10:55:39.243Z,7.50
2023-02-17T10:57:43.070Z,10.00
2023-02-17T10:59:47.805Z,9.75
2023-02-17T11:01:49.551Z,9.00
2023-02-17T11:04:00.222Z,9.75
2023-02-17T11:06:03.952Z,8.25
2023-02-17T11:08:15.609Z,9.75
2023-02-17T11:10:21.614Z,8.50
2023-02-17T11:12:29.540Z,4.75
2023-02-17T11:14:33.483Z,8.50
2023-02-17T11:16:39.325Z,5.50
2023-02-17T11:18:46.841Z,6.50
2023-02-17T11:20:48.546Z,6.00
2023-02-17T11:23:01.500Z,5.00
2023-02-17T11:25:06.642Z,6.50
2023-02-17T11:27:25.577Z,8.00
2023-02-17T11:29:28.295Z,9.00
2023-02-17T11:31:31.376Z,7.50
2023-02-17T11:33:37.115Z,6.00
2023-02-17T11:35:53.259Z,11.25
2023-02-17T11:38:01.773Z,11.00
2023-02-17T11:40:25.343Z,9.00
2023-02-17T11:42:30.190Z,9.75
2023-02-17T11:44:31.769Z,6.75
2023-02-17T11:46:38.940Z,7.00
2023-02-17T11:49:07.807Z,6.75
2023-02-17T11:51:14.812Z,6.50
2023-02-17T11:53:28.034Z,7.00
2023-02-17T11:55:39.894Z,8.50
2023-02-17T11:57:45.649Z,9.00
2023-02-17T12:00:00.991Z,4.00
2023-02-17T12:02:15.057Z,5.75
2023-02-17T12:04:29.623Z,4.00
2023-02-17T12:06:44.332Z,6.25
2023-02-17T12:09:01.274Z,5.00
2023-02-17T12:11:15.763Z,5.75
2023-02-17T12:13:31.410Z,5.00
2023-02-17T12:15:49.644Z,4.00
2023-02-17T12:17:59.701Z,6.00
2023-02-17T12:20:15.301Z,4.50
2023-02-17T12:22:19.317Z,4.00
2023-02-17T12:24:41.101Z,4.00
2023-02-17T12:26:47.361Z,4.00
2023-02-17T12:29:00.255Z,3.00
2023-02-17T12:31:08.529Z,4.25
2023-02-17T12:33:27.790Z,3.25
2023-02-17T12:35:40.803Z,4.00
2023-02-17T12:37:49.272Z,2.75
2023-02-17T12:39:55.070Z,2.75
2023-02-17T12:42:02.221Z,3.00
2023-02-17T12:44:08.269Z,3.00
2023-02-17T12:46:14.985Z,3.50
2023-02-17T12:48:25.995Z,2.25
2023-02-17T12:50:32.621Z,3.00
2023-02-17T12:52:40.966Z,2.75
2023-02-17T12:54:48.393Z,2.00
2023-02-17T12:56:59.845Z,2.00
2023-02-17T12:59:11.025Z,2.00
2023-02-17T13:01:17.165Z,3.75
2023-02-17T13:03:19.037Z,2.00
2023-02-17T13:05:27.664Z,2.00
2023-02-17T13:07:43.204Z,1.50
2023-02-17T13:09:46.964Z,1.00
2023-02-17T13:11:48.640Z,2.00
2023-02-17T13:13:50.632Z,1.75
2023-02-17T13:16:02.948Z,2.00
2023-02-17T13:18:06.799Z,1.00
2023-02-17T13:20:29.100Z,0.00
2023-02-17T13:22:30.655Z,2.00
2023-02-17T13:24:36.269Z,1.50
2023-02-17T13:26:39.528Z,2.50
2023-02-17T13:28:41.788Z,1.00
2023-02-17T13:30:45.109Z,2.00
2023-02-17T13:32:47.071Z,0.00
2023-02-17T13:35:00.531Z,2.00
2023-02-17T13:37:16.042Z,0.00
2023-02-17T13:39:33.231Z,0.25
2023-02-17T13:41:45.779Z,2.00
2023-02-17T13:43:47.509Z,2.50
2023-02-17T13:45:53.538Z,2.00
2023-02-17T13:47:57.886Z,1.00
2023-02-17T13:49:59.594Z,0.50
2023-02-17T13:52:16.299Z,0.00
2023-02-17T13:54:21.172Z,1.75
2023-02-17T13:56:29.344Z,1.00
2023-02-17T13:58:36.402Z,0.00
2023-02-17T14:00:39.121Z,1.00
2023-02-17T14:02:48.704Z,0.75
2023-02-17T14:04:50.377Z,1.00
2023-02-17T14:06:52.775Z,1.75
2023-02-17T14:08:54.510Z,1.00
2023-02-17T14:10:57.203Z,0.50
2023-02-17T14:13:00.132Z,1.00
2023-02-17T14:15:03.302Z,1.00
2023-02-17T14:17:06.932Z,1.50
2023-02-17T14:19:10.891Z,1.00
2023-02-17T14:21:25.019Z,0.00
2023-02-17T14:23:26.723Z,2.00
2023-02-17T14:25:30.020Z,0.00
2023-02-17T14:27:41.857Z,0.50
2023-02-17T14:29:45.563Z,1.00
2023-02-17T14:31:51.905Z,0.50
2023-02-17T14:33:59.190Z,2.00
2023-02-17T14:36:03.865Z,0.00
2023-02-17T14:38:19.149Z,1.50
2023-02-17T14:40:23.670Z,0.75
2023-02-17T14:42:25.311Z,1.50
2023-02-17T14:44:26.945Z,1.00
2023-02-17T14:46:28.494Z,1.00
2023-02-17T14:48:31.562Z,1.00
2023-02-17T14:50:33.544Z,1.00
2023-02-17T14:52:41.690Z,1.00
2023-02-17T14:54:43.527Z,6.50
2023-02-17T14:56:49.739Z,0.25
2023-02-17T14:58:51.485Z,1.00
2023-02-17T15:00:52.975Z,1.75
2023-02-17T15:02:54.552Z,0.00
2023-02-17T15:04:57.746Z,1.00
2023-02-17T15:06:59.304Z,1.00
2023-02-17T15:09:01.206Z,1.00
2023-02-17T15:11:03.284Z,1.50
2023-02-17T15:13:04.922Z,1.00
2023-02-17T15:15:07.228Z,1.00
2023-02-17T15:17:09.196Z,1.00
2023-02-17T15:19:11.083Z,1.00
2023-02-17T15:21:25.957Z,1.00
2023-02-17T15:23:31.934Z,1.00
2023-02-17T15:25:34.710Z,2.00
2023-02-17T15:27:36.242Z,1.00
2023-02-17T15:29:38.089Z,1.00
2023-02-17T15:31:40.032Z,1.00
2023-02-17T15:33:41.929Z,0.00
2023-02-17T15:35:43.453Z,1.25
2023-02-17T15:37:47.112Z,1.00
2023-02-17T15:39:48.730Z,1.50
2023-02-17T15:41:53.788Z,3.00
2023-02-17T15:43:57.308Z,3.50
2023-02-17T15:45:59.179Z,1.00
2023-02-17T15:48:04.478Z,1.50
2023-02-17T15:50:12.084Z,1.00
2023-02-17T15:52:14.598Z,0.00
2023-02-17T15:54:17.537Z,0.00
2023-02-17T15:56:21.508Z,2.00
2023-02-17T15:58:23.569Z,0.00
2023-02-17T16:00:27.430Z,1.00
2023-02-17T16:02:29.422Z,0.50
2023-02-17T16:04:31.095Z,2.00
2023-02-17T16:06:32.687Z,1.00
2023-02-17T16:08:34.256Z,2.00
2023-02-17T16:10:38.292Z,3.25
2023-02-17T16:12:40.577Z,0.75
2023-02-17T16:14:42.642Z,2.25
2023-02-17T16:16:44.270Z,0.50
2023-02-17T16:18:47.105Z,2.00
2023-02-17T16:20:50.194Z,1.00
2023-02-17T16:22:52.904Z,2.00
2023-02-17T16:24:54.515Z,1.00
2023-02-17T16:26:57.756Z,1.25
2023-02-17T16:29:00.193Z,1.00
2023-02-17T16:31:01.775Z,1.00
2023-02-17T16:33:04.205Z,2.25
2023-02-17T16:35:06.562Z,2.50
2023-02-17T16:37:13.714Z,2.00
2023-02-17T16:39:17.596Z,1.50
2023-02-17T16:41:20.461Z,2.75
2023-02-17T16:43:24.969Z,2.00
2023-02-17T16:45:30.348Z,0.75
2023-02-17T16:47:32.005Z,1.00
2023-02-17T16:49:37.935Z,1.00
2023-02-17T16:51:39.454Z,1.00
2023-02-17T16:53:41.072Z,0.75
2023-02-17T16:55:43.267Z,2.00
2023-02-17T16:57:46.130Z,0.00
2023-02-17T16:59:49.524Z,1.25
2023-02-17T17:01:52.296Z,1.00
2023-02-17T17:03:53.906Z,0.00
2023-02-17T17:05:55.705Z,1.00
2023-02-17T17:07:57.777Z,1.50
2023-02-17T17:10:15.472Z,2.25
2023-02-17T17:12:19.350Z,0.75
2023-02-17T17:14:21.882Z,0.00
2023-02-17T17:16:28.420Z,2.00
2023-02-17T17:18:30.017Z,0.75
2023-02-17T17:20:33.800Z,1.75
2023-02-17T17:22:35.563Z,1.00
2023-02-17T17:24:37.393Z,0.00
2023-02-17T17:26:41.742Z,1.75
2023-02-17T17:28:43.406Z,2.50
2023-02-17T17:30:46.040Z,4.75
2023-02-17T17:35:01.884Z,3.00
2023-02-17T17:37:04.727Z,2.00
2023-02-17T17:39:09.367Z,1.00
2023-02-17T17:41:13.189Z,2.00
2023-02-17T17:43:15.534Z,2.25
2023-02-17T17:45:17.809Z,2.00
2023-02-17T17:47:29.338Z,0.50
2023-02-17T17:49:31.979Z,1.50
2023-02-17T17:51:33.733Z,2.25
2023-02-17T17:53:36.624Z,3.50
2023-02-17T17:55:38.148Z,1.75
2023-02-17T17:57:40.315Z,1.00
2023-02-17T17:59:41.880Z,1.00
2023-02-17T18:01:45.767Z,0.50
2023-02-17T18:03:48.406Z,3.00
2023-02-17T18:05:49.972Z,2.00
2023-02-17T18:07:52.096Z,2.00
2023-02-17T18:09:55.371Z,2.50
2023-02-17T18:11:59.124Z,1.75
2023-02-17T18:14:04.132Z,3.00
2023-02-17T18:16:06.531Z,1.00
2023-02-17T18:18:10.649Z,1.50
2023-02-17T18:20:13.214Z,2.00
2023-02-17T18:22:15.196Z,2.50
2023-02-17T18:24:17.058Z,1.00
2023-02-17T18:26:20.155Z,1.50
2023-02-17T18:28:21.933Z,1.50
2023-02-17T18:30:24.124Z,1.00
2023-02-17T18:32:25.951Z,2.25
2023-02-17T18:34:27.538Z,1.00
2023-02-17T18:36:29.299Z,2.00
2023-02-17T18:38:30.870Z,0.00
2023-02-17T18:40:33.007Z,1.00
2023-02-17T18:42:35.944Z,1.75
2023-02-17T18:44:37.546Z,1.75
2023-02-17T18:46:39.905Z,1.00
2023-02-17T18:48:42.487Z,1.00
2023-02-17T18:50:44.106Z,1.00
2023-02-17T18:52:45.714Z,3.00
2023-02-17T18:54:47.537Z,2.75
2023-02-17T18:56:49.304Z,1.00
2023-02-17T18:58:53.497Z,1.00
2023-02-17T19:00:55.408Z,1.00
2023-02-17T19:02:56.932Z,0.25
2023-02-17T19:04:58.716Z,2.00
2023-02-17T19:07:00.637Z,2.25
2023-02-17T19:09:03.520Z,2.00
2023-02-17T19:11:05.483Z,1.00
2023-02-17T19:13:07.110Z,2.00
2023-02-17T19:15:10.695Z,0.00
2023-02-17T19:17:12.766Z,2.00
2023-02-17T19:19:14.831Z,2.00
2023-02-17T19:21:16.581Z,2.75
2023-02-17T19:23:18.779Z,0.00
2023-02-17T19:25:20.330Z,1.00
2023-02-17T19:27:22.079Z,2.00
2023-02-17T19:29:23.862Z,2.25
2023-02-17T19:31:26.997Z,1.25
2023-02-17T19:33:28.840Z,3.00
2023-02-17T19:35:30.643Z,1.00
2023-02-17T19:37:32.156Z,2.25
2023-02-17T19:39:35.405Z,3.00
2023-02-17T19:41:36.926Z,2.00
2023-02-17T19:43:38.974Z,2.50
2023-02-17T19:45:40.631Z,1.00
2023-02-17T19:47:43.765Z,1.00
2023-02-17T19:49:45.333Z,1.50
2023-02-17T19:51:47.064Z,1.75
2023-02-17T19:53:48.783Z,1.00
2023-02-17T19:55:50.702Z,2.00
2023-02-17T19:57:52.974Z,2.25
2023-02-17T19:59:54.515Z,2.00
2023-02-17T20:01:56.608Z,1.75
2023-02-17T20:04:03.645Z,0.50
2023-02-17T20:06:07.885Z,1.00
2023-02-17T20:08:09.565Z,2.00
2023-02-17T20:10:12.822Z,1.75
2023-02-17T20:12:14.407Z,1.00
2023-02-17T20:14:16.071Z,1.00
2023-02-17T20:16:18.745Z,1.25
2023-02-17T20:18:20.323Z,1.00
2023-02-17T20:20:23.279Z,1.75
2023-02-17T20:22:24.812Z,1.00
2023-02-17T20:24:26.672Z,0.75
2023-02-17T20:26:30.949Z,1.00
2023-02-17T20:28:32.898Z,1.00
2023-02-17T20:30:34.796Z,1.00
2023-02-17T20:32:36.471Z,0.00
2023-02-17T20:34:39.393Z,1.25
2023-02-17T20:36:42.377Z,1.00
2023-02-17T20:38:44.621Z,1.00
2023-02-17T20:40:46.479Z,2.00
2023-02-17T20:42:48.038Z,1.25
2023-02-17T20:44:49.658Z,0.75
2023-02-17T20:46:51.537Z,0.75
2023-02-17T20:48:54.390Z,1.00
2023-02-17T20:50:57.246Z,0.25
2023-02-17T20:53:00.220Z,0.75
2023-02-17T20:55:02.153Z,0.00
2023-02-17T20:57:03.944Z,1.00
2023-02-17T20:59:08.624Z,1.00
2023-02-17T21:01:10.513Z,2.00
2023-02-17T21:03:12.148Z,2.00
2023-02-17T21:05:15.833Z,1.75
2023-02-17T21:07:19.868Z,0.00
2023-02-17T21:09:22.821Z,1.00
2023-02-17T21:11:24.921Z,1.00
2023-02-17T21:13:27.964Z,2.00
2023-02-17T21:15:30.656Z,0.00
2023-02-17T21:17:32.207Z,1.00
2023-02-17T21:19:33.735Z,1.00
2023-02-17T21:21:35.791Z,3.00
2023-02-17T21:23:37.560Z,1.50
2023-02-17T21:25:40.521Z,2.00
2023-02-17T21:27:42.502Z,3.00
2023-02-17T21:29:44.023Z,3.00
2023-02-17T21:31:45.671Z,1.75
2023-02-17T21:33:47.300Z,0.25
2023-02-17T21:35:49.290Z,1.25
2023-02-17T21:37:51.100Z,2.00
2023-02-17T21:39:52.899Z,1.00
2023-02-17T21:41:55.779Z,1.00
2023-02-17T21:43:57.399Z,1.50
2023-02-17T21:45:58.943Z,1.75
2023-02-17T21:48:00.475Z,2.00
2023-02-17T21:50:02.231Z,0.25
2023-02-17T21:52:03.944Z,2.00
2023-02-17T21:54:06.445Z,2.25
2023-02-17T21:56:08.366Z,2.00
2023-02-17T21:58:11.930Z,3.00
2023-02-17T22:00:15.062Z,0.75
2023-02-17T22:02:16.690Z,1.75
2023-02-17T22:04:18.664Z,0.25
2023-02-17T22:06:22.010Z,1.00
2023-02-17T22:08:23.811Z,3.00
2023-02-17T22:10:25.679Z,1.00
2023-02-17T22:12:28.152Z,1.00
2023-02-17T22:14:31.181Z,1.00
2023-02-17T22:16:36.316Z,0.75
2023-02-17T22:18:38.744Z,1.00
2023-02-17T22:20:43.251Z,0.75
2023-02-17T22:22:44.913Z,3.00
2023-02-17T22:24:46.524Z,1.00
2023-02-17T22:26:49.510Z,1.50
2023-02-17T22:28:51.726Z,0.25
2023-02-17T22:30:54.628Z,1.50
2023-02-17T22:32:56.201Z,2.25
2023-02-17T22:34:58.124Z,1.75
2023-02-17T22:36:59.810Z,1.00
2023-02-17T22:39:03.543Z,1.25
2023-02-17T22:41:06.218Z,1.00
2023-02-17T22:43:07.800Z,2.00
2023-02-17T22:45:09.642Z,1.25
2023-02-17T22:47:12.553Z,1.00
2023-02-17T22:49:14.430Z,2.00
2023-02-17T22:51:19.400Z,1.00
2023-02-17T22:53:21.522Z,1.50
2023-02-17T22:55:23.383Z,1.00
2023-02-17T22:57:25.103Z,0.75
2023-02-17T22:59:27.366Z,3.00
2023-02-17T23:01:31.866Z,2.50
2023-02-17T23:03:35.345Z,2.25
2023-02-17T23:05:37.240Z,1.00
2023-02-17T23:07:38.832Z,1.00
2023-02-17T23:09:40.745Z,3.00
2023-02-17T23:11:42.364Z,1.00
2023-02-17T23:13:44.701Z,1.00
2023-02-17T23:15:46.551Z,2.00
2023-02-17T23:17:48.079Z,1.00
2023-02-17T23:19:51.003Z,0.00
2023-02-17T23:21:55.121Z,0.00
2023-02-17T23:23:56.653Z,0.00
2023-02-17T23:25:58.362Z,1.50
2023-02-17T23:28:00.898Z,1.50
2023-02-17T23:30:02.439Z,2.00
2023-02-17T23:32:05.055Z,0.00
2023-02-17T23:34:07.600Z,0.00
2023-02-17T23:36:11.298Z,1.00
2023-02-17T23:38:14.140Z,1.00
2023-02-17T23:40:16.010Z,1.00
2023-02-17T23:42:17.540Z,1.00
2023-02-17T23:44:19.062Z,1.75
2023-02-17T23:46:21.310Z,2.00
2023-02-17T23:48:23.450Z,1.25
2023-02-17T23:50:25.763Z,0.25
2023-02-17T23:52:28.770Z,0.25
2023-02-17T23:54:30.418Z,1.00
2023-02-17T23:56:34.138Z,2.00
2023-02-17T23:58:35.678Z,1.00
